Time;durP1;ratioP1;P1;durP2;ratioP2;P2;SDS_P1;SDS_P2;PMS_P1;PMS_P2;Temp;Humidity;BMP_temperature;BMP_pressure;BME280_temperature;BME280_humidity;BME280_pressure;Samples;Min_cycle;Max_cycle;Signal;HPM_P1;HPM_P2
2022/04/28 00:00:50;;;;;;;9.35;7.05;;;;;;;;;;4965993;28;20049;-63
2022/04/28 00:03:36;;;;;;;11.65;6.30;;;;;;;;;;4977536;28;20039;-63
2022/04/28 00:06:21;;;;;;;9.38;6.28;;;;;;;;;;4969201;28;20121;-67
2022/04/28 00:09:06;;;;;;;9.80;7.28;;;;;;;;;;4966077;28;20097;-69
2022/04/28 00:11:52;;;;;;;7.75;5.68;;;;;;;;;;4968586;28;20085;-72
2022/04/28 00:14:38;;;;;;;16.58;7.68;;;;;;;;;;4985627;28;20050;-69
2022/04/28 00:17:23;;;;;;;9.10;6.82;;;;;;;;;;4955528;28;20035;-69
2022/04/28 00:20:09;;;;;;;9.38;6.50;;;;;;;;;;4973707;28;20501;-69
2022/04/28 00:22:54;;;;;;;10.27;6.68;;;;;;;;;;4969665;28;20081;-70
2022/04/28 00:25:39;;;;;;;10.80;6.43;;;;;;;;;;4968059;28;20035;-74
2022/04/28 00:28:25;;;;;;;9.13;6.20;;;;;;;;;;4976255;28;20034;-65
2022/04/28 00:31:10;;;;;;;10.80;6.95;;;;;;;;;;4967948;28;20041;-65
2022/04/28 00:33:55;;;;;;;11.10;6.57;;;;;;;;;;4968891;28;20063;-66
2022/04/28 00:36:41;;;;;;;9.30;6.75;;;;;;;;;;4968018;28;20038;-64
2022/04/28 00:39:26;;;;;;;9.05;6.40;;;;;;;;;;4988531;28;20026;-67
2022/04/28 00:42:12;;;;;;;11.20;6.43;;;;;;;;;;4967200;28;20153;-66
2022/04/28 00:44:58;;;;;;;11.02;6.72;;;;;;;;;;4972434;28;20034;-69
2022/04/28 00:50:47;;;;;;;10.55;6.28;;;;;;;;;;4966995;28;20042;-65
2022/04/28 00:53:34;;;;;;;10.73;6.90;;;;;;;;;;4967336;28;20031;-64
2022/04/28 00:56:19;;;;;;;10.10;6.20;;;;;;;;;;4973355;28;20425;-62
2022/04/28 00:59:06;;;;;;;10.57;7.03;;;;;;;;;;4979903;28;20039;-62
2022/04/28 01:01:51;;;;;;;10.63;6.75;;;;;;;;;;4984303;28;20043;-72
2022/04/28 01:04:38;;;;;;;10.20;6.78;;;;;;;;;;4969888;28;20092;-64
2022/04/28 01:07:23;;;;;;;8.70;6.45;;;;;;;;;;4957823;28;20175;-60
2022/04/28 01:10:08;;;;;;;11.07;7.35;;;;;;;;;;4961586;28;20398;-59
2022/04/28 01:12:54;;;;;;;9.63;7.00;;;;;;;;;;4972188;28;20097;-60
2022/04/28 01:15:43;;;;;;;10.60;6.30;;;;;;;;;;4962160;28;20078;-59
2022/04/28 01:18:28;;;;;;;13.82;7.32;;;;;;;;;;4970725;28;20037;-60
2022/04/28 01:21:13;;;;;;;10.02;7.32;;;;;;;;;;4977350;28;20121;-69
2022/04/28 01:23:59;;;;;;;10.25;6.38;;;;;;;;;;4971228;28;20385;-68
2022/04/28 01:26:44;;;;;;;9.25;6.75;;;;;;;;;;4983536;28;20049;-66
2022/04/28 01:29:33;;;;;;;10.27;6.75;;;;;;;;;;4971617;28;20457;-66
2022/04/28 01:32:19;;;;;;;10.27;5.93;;;;;;;;;;4971828;28;20448;-67
2022/04/28 01:35:04;;;;;;;9.45;6.53;;;;;;;;;;4970559;28;20047;-67
2022/04/28 01:37:49;;;;;;;10.63;7.20;;;;;;;;;;4975101;28;20035;-66
2022/04/28 01:40:35;;;;;;;9.93;6.88;;;;;;;;;;4965973;28;20113;-74
2022/04/28 01:43:20;;;;;;;10.05;6.70;;;;;;;;;;4945071;28;20058;-63
2022/04/28 01:46:05;;;;;;;10.93;7.32;;;;;;;;;;4966620;28;20023;-61
2022/04/28 01:48:50;;;;;;;10.63;6.45;;;;;;;;;;4966266;28;20031;-61
2022/04/28 01:54:58;;;;;;;12.93;8.32;;;;;;;;;;4980794;28;20031;-60
2022/04/28 01:57:43;;;;;;;9.63;6.32;;;;;;;;;;4966294;28;20038;-63
2022/04/28 02:00:32;;;;;;;8.95;6.68;;;;;;;;;;4968768;28;20049;-73
2022/04/28 02:03:17;;;;;;;10.02;7.55;;;;;;;;;;4970355;28;20054;-72
2022/04/28 02:06:02;;;;;;;8.35;6.43;;;;;;;;;;4965772;28;20066;-72
2022/04/28 02:08:47;;;;;;;11.07;6.70;;;;;;;;;;4992983;28;20439;-72
2022/04/28 02:11:33;;;;;;;9.65;6.47;;;;;;;;;;4977694;28;20050;-73
2022/04/28 02:14:18;;;;;;;10.73;6.60;;;;;;;;;;4975887;28;20397;-72
2022/04/28 02:17:04;;;;;;;10.27;6.43;;;;;;;;;;4984195;28;20029;-59
2022/04/28 02:19:50;;;;;;;12.23;7.32;;;;;;;;;;4978224;28;20038;-71
2022/04/28 02:22:36;;;;;;;8.35;5.50;;;;;;;;;;4969826;28;20552;-71
2022/04/28 02:25:21;;;;;;;9.82;6.03;;;;;;;;;;4959259;28;20089;-71
2022/04/28 02:28:06;;;;;;;9.95;7.10;;;;;;;;;;4985124;28;20026;-71
2022/04/28 02:30:52;;;;;;;9.15;6.47;;;;;;;;;;4969291;28;20034;-71
2022/04/28 02:33:38;;;;;;;11.98;7.25;;;;;;;;;;4965993;28;20121;-72
2022/04/28 02:36:24;;;;;;;11.40;6.53;;;;;;;;;;4960832;28;20050;-73
2022/04/28 02:39:09;;;;;;;17.70;7.43;;;;;;;;;;4949702;28;20034;-70
2022/04/28 02:41:55;;;;;;;9.45;6.55;;;;;;;;;;4977675;28;20047;-71
2022/04/28 02:44:40;;;;;;;10.32;6.53;;;;;;;;;;4981763;28;20049;-72
2022/04/28 02:47:25;;;;;;;9.25;6.40;;;;;;;;;;4982160;28;20174;-70
2022/04/28 02:50:11;;;;;;;8.45;6.10;;;;;;;;;;4985086;28;20097;-72
2022/04/28 02:52:56;;;;;;;11.10;7.18;;;;;;;;;;4972216;28;20074;-70
2022/04/28 02:55:42;;;;;;;9.35;6.40;;;;;;;;;;4963449;28;20043;-69
2022/04/28 02:58:27;;;;;;;8.32;6.00;;;;;;;;;;4969423;28;20045;-69
2022/04/28 03:01:12;;;;;;;8.70;6.38;;;;;;;;;;4968815;28;20385;-70
2022/04/28 03:03:58;;;;;;;8.07;6.13;;;;;;;;;;4969502;28;20074;-70
2022/04/28 03:12:51;;;;;;;10.13;6.68;;;;;;;;;;4966064;28;20038;-68
2022/04/28 03:15:39;;;;;;;9.70;6.47;;;;;;;;;;4963152;28;20027;-65
2022/04/28 03:18:24;;;;;;;8.43;6.43;;;;;;;;;;4969296;28;20121;-69
2022/04/28 03:21:09;;;;;;;10.68;6.57;;;;;;;;;;4970619;28;20062;-66
2022/04/28 03:23:55;;;;;;;11.05;6.85;;;;;;;;;;4969054;28;20081;-65
2022/04/28 03:26:40;;;;;;;7.93;5.80;;;;;;;;;;4968231;28;20054;-65
2022/04/28 03:29:26;;;;;;;9.48;6.10;;;;;;;;;;4968712;28;20447;-73
2022/04/28 03:32:11;;;;;;;10.40;6.88;;;;;;;;;;4967782;28;20047;-71
2022/04/28 03:34:56;;;;;;;9.35;5.95;;;;;;;;;;4950855;28;20382;-71
2022/04/28 03:37:46;;;;;;;12.32;6.13;;;;;;;;;;4968314;28;20059;-70
2022/04/28 03:40:32;;;;;;;12.00;7.53;;;;;;;;;;4971496;28;20030;-70
2022/04/28 03:43:17;;;;;;;10.25;6.10;;;;;;;;;;4960077;28;20105;-71
2022/04/28 03:46:03;;;;;;;11.63;6.50;;;;;;;;;;4972682;28;20546;-71
2022/04/28 03:48:48;;;;;;;9.80;6.10;;;;;;;;;;4969051;28;20030;-68
2022/04/28 03:51:34;;;;;;;9.45;6.03;;;;;;;;;;4968940;28;20092;-72
2022/04/28 03:54:19;;;;;;;10.98;7.03;;;;;;;;;;4980780;28;20062;-71
2022/04/28 03:57:04;;;;;;;11.13;7.15;;;;;;;;;;4970590;28;20034;-71
2022/04/28 03:59:50;;;;;;;10.10;7.25;;;;;;;;;;4968920;28;20042;-72
2022/04/28 04:02:35;;;;;;;8.55;6.22;;;;;;;;;;4974952;28;20525;-71
2022/04/28 04:05:21;;;;;;;9.00;6.28;;;;;;;;;;4968078;28;20031;-77
2022/04/28 04:08:06;;;;;;;10.65;6.15;;;;;;;;;;4969837;28;20038;-68
2022/04/28 04:10:52;;;;;;;8.57;6.00;;;;;;;;;;4968282;28;20039;-73
2022/04/28 04:13:37;;;;;;;13.35;6.88;;;;;;;;;;4975653;28;20045;-73
2022/04/28 04:16:22;;;;;;;8.88;6.57;;;;;;;;;;4967656;28;20030;-73
2022/04/28 04:19:07;;;;;;;11.07;6.75;;;;;;;;;;4969553;28;20030;-72
2022/04/28 04:21:53;;;;;;;10.57;6.88;;;;;;;;;;4960088;28;20031;-71
2022/04/28 04:24:38;;;;;;;10.82;8.13;;;;;;;;;;4967763;28;20042;-65
2022/04/28 04:27:23;;;;;;;11.02;6.88;;;;;;;;;;4953924;28;20046;-60
2022/04/28 04:33:12;;;;;;;11.05;7.70;;;;;;;;;;4962325;28;20061;-60
2022/04/28 04:35:57;;;;;;;13.60;8.40;;;;;;;;;;4968976;28;20039;-61
2022/04/28 04:38:43;;;;;;;13.13;8.45;;;;;;;;;;4971429;28;20031;-62
2022/04/28 04:41:28;;;;;;;10.63;7.13;;;;;;;;;;4967371;28;20761;-61
2022/04/28 04:44:14;;;;;;;11.38;7.53;;;;;;;;;;4971458;28;20041;-77
2022/04/28 04:46:59;;;;;;;11.77;8.18;;;;;;;;;;4971642;28;20034;-69
2022/04/28 04:49:45;;;;;;;14.25;7.93;;;;;;;;;;4970702;28;20030;-69
2022/04/28 04:52:30;;;;;;;12.60;8.07;;;;;;;;;;4963000;28;20034;-70
2022/04/28 04:55:16;;;;;;;12.05;7.70;;;;;;;;;;4986583;28;20038;-70
2022/04/28 04:58:02;;;;;;;11.95;8.13;;;;;;;;;;4951832;28;20482;-69
2022/04/28 05:00:48;;;;;;;11.73;7.68;;;;;;;;;;4984961;28;20077;-66
2022/04/28 05:03:33;;;;;;;11.80;7.65;;;;;;;;;;4984718;28;20328;-73
2022/04/28 05:06:19;;;;;;;11.88;8.77;;;;;;;;;;4971227;28;20054;-72
2022/04/28 05:09:04;;;;;;;12.15;8.30;;;;;;;;;;4972014;28;20037;-72
2022/04/28 05:11:49;;;;;;;14.52;8.90;;;;;;;;;;4970715;28;20043;-73
2022/04/28 05:14:35;;;;;;;14.55;8.10;;;;;;;;;;4957844;28;20038;-75
2022/04/28 05:17:20;;;;;;;14.25;9.13;;;;;;;;;;4979809;28;20023;-75
2022/04/28 05:20:06;;;;;;;11.45;8.75;;;;;;;;;;4967408;28;20034;-64
2022/04/28 05:22:51;;;;;;;15.55;8.98;;;;;;;;;;4970802;28;20121;-65
2022/04/28 05:25:36;;;;;;;14.68;8.70;;;;;;;;;;4981996;28;20030;-66
2022/04/28 05:28:25;;;;;;;12.57;9.10;;;;;;;;;;4977008;28;20054;-64
2022/04/28 05:31:10;;;;;;;12.50;8.65;;;;;;;;;;4963137;28;20038;-64
2022/04/28 05:33:55;;;;;;;12.45;9.80;;;;;;;;;;4963405;28;20035;-68
2022/04/28 05:36:40;;;;;;;16.25;9.25;;;;;;;;;;4984731;28;20069;-65
2022/04/28 05:39:26;;;;;;;12.63;8.90;;;;;;;;;;4971974;28;20452;-65
2022/04/28 05:42:11;;;;;;;13.23;8.80;;;;;;;;;;4967358;28;20101;-74
2022/04/28 05:48:01;;;;;;;11.70;8.60;;;;;;;;;;4967532;28;20046;-74
2022/04/28 05:50:47;;;;;;;13.98;9.57;;;;;;;;;;4968295;28;20373;-74
2022/04/28 05:53:32;;;;;;;13.45;9.95;;;;;;;;;;4966031;28;20039;-74
2022/04/28 05:56:17;;;;;;;16.42;10.35;;;;;;;;;;4978663;28;20085;-76
2022/04/28 05:59:02;;;;;;;14.13;9.32;;;;;;;;;;4964737;28;20486;-68
2022/04/28 06:01:48;;;;;;;13.13;9.05;;;;;;;;;;4966189;28;20050;-65
2022/04/28 06:04:33;;;;;;;12.10;8.48;;;;;;;;;;4962394;28;20506;-66
2022/04/28 06:07:18;;;;;;;12.73;9.52;;;;;;;;;;4967274;28;20728;-65
2022/04/28 06:10:04;;;;;;;14.13;8.90;;;;;;;;;;4966522;28;20155;-66
2022/04/28 06:12:49;;;;;;;13.73;9.13;;;;;;;;;;4966813;28;20042;-65
2022/04/28 06:15:34;;;;;;;11.93;7.97;;;;;;;;;;4964039;28;20436;-63
2022/04/28 06:18:19;;;;;;;11.20;8.30;;;;;;;;;;4965245;28;20438;-67
2022/04/28 06:21:05;;;;;;;13.90;7.75;;;;;;;;;;4974639;28;20120;-68
2022/04/28 06:23:50;;;;;;;11.00;7.72;;;;;;;;;;4977454;28;20049;-67
2022/04/28 06:26:35;;;;;;;14.00;8.57;;;;;;;;;;4951760;28;20490;-70
2022/04/28 06:29:21;;;;;;;12.20;8.63;;;;;;;;;;4968121;28;20030;-70
2022/04/28 06:32:07;;;;;;;13.43;8.73;;;;;;;;;;4962694;28;20041;-69
2022/04/28 06:34:52;;;;;;;12.05;8.63;;;;;;;;;;4964767;28;20038;-71
2022/04/28 06:37:39;;;;;;;11.93;8.38;;;;;;;;;;4952821;28;20026;-71
2022/04/28 06:40:24;;;;;;;11.43;8.40;;;;;;;;;;4975212;28;20637;-73
2022/04/28 06:43:09;;;;;;;15.07;9.02;;;;;;;;;;4965371;28;20089;-72
2022/04/28 06:46:13;;;;;;;13.13;8.57;;;;;;;;;;4964415;28;20074;-74
2022/04/28 06:48:58;;;;;;;14.05;9.60;;;;;;;;;;4976553;28;20039;-71
2022/04/28 06:51:46;;;;;;;13.13;8.40;;;;;;;;;;4966544;28;20282;-70
2022/04/28 06:54:31;;;;;;;14.38;8.70;;;;;;;;;;4963913;28;21610;-68
2022/04/28 06:57:17;;;;;;;17.05;8.98;;;;;;;;;;4964709;28;20031;-66
2022/04/28 07:00:06;;;;;;;15.65;8.45;;;;;;;;;;4967551;28;21398;-68
2022/04/28 07:02:51;;;;;;;12.98;9.13;;;;;;;;;;4965309;28;20518;-68
2022/04/28 07:05:39;;;;;;;14.35;9.25;;;;;;;;;;4967478;28;20061;-66
2022/04/28 07:08:24;;;;;;;13.20;9.43;;;;;;;;;;4975874;28;20069;-66
2022/04/28 07:11:10;;;;;;;12.85;8.70;;;;;;;;;;4977549;28;20027;-73
2022/04/28 07:13:55;;;;;;;14.43;8.85;;;;;;;;;;4962806;28;20039;-75
2022/04/28 07:16:40;;;;;;;12.23;8.55;;;;;;;;;;4951867;28;20046;-73
2022/04/28 07:19:26;;;;;;;10.82;8.25;;;;;;;;;;4973300;28;20498;-74
2022/04/28 07:22:11;;;;;;;11.95;7.80;;;;;;;;;;4978401;28;20066;-76
2022/04/28 07:24:56;;;;;;;14.35;8.30;;;;;;;;;;4968991;28;20048;-77
2022/04/28 07:27:41;;;;;;;12.23;7.40;;;;;;;;;;4962364;28;20057;-70
2022/04/28 07:30:27;;;;;;;10.15;7.10;;;;;;;;;;4962880;28;20031;-66
2022/04/28 07:33:12;;;;;;;10.27;7.63;;;;;;;;;;4966292;28;20057;-71
2022/04/28 07:35:57;;;;;;;12.32;7.50;;;;;;;;;;4961742;28;20039;-64
2022/04/28 07:38:42;;;;;;;11.52;7.10;;;;;;;;;;4964739;28;20026;-64
2022/04/28 07:41:28;;;;;;;10.23;6.82;;;;;;;;;;4966298;28;20023;-64
2022/04/28 07:44:14;;;;;;;11.63;7.63;;;;;;;;;;4961697;28;20042;-66
2022/04/28 07:46:59;;;;;;;13.50;6.93;;;;;;;;;;4965086;28;20628;-64
2022/04/28 07:49:44;;;;;;;10.27;6.28;;;;;;;;;;4953939;28;20917;-69
2022/04/28 07:52:30;;;;;;;10.85;6.97;;;;;;;;;;4964893;28;20462;-72
2022/04/28 07:55:15;;;;;;;9.02;5.97;;;;;;;;;;4963940;28;20114;-70
2022/04/28 07:58:01;;;;;;;9.00;6.85;;;;;;;;;;4963181;28;20094;-70
2022/04/28 08:00:46;;;;;;;8.73;6.03;;;;;;;;;;4951281;28;20039;-65
2022/04/28 08:03:31;;;;;;;9.63;6.38;;;;;;;;;;4974387;28;20038;-67
2022/04/28 08:06:17;;;;;;;14.85;6.32;;;;;;;;;;4960821;28;20054;-67
2022/04/28 08:09:02;;;;;;;10.43;6.38;;;;;;;;;;4963816;28;20474;-66
2022/04/28 08:11:47;;;;;;;13.55;6.13;;;;;;;;;;4965799;28;20057;-63
2022/04/28 08:14:33;;;;;;;9.10;6.75;;;;;;;;;;4963732;28;20106;-65
2022/04/28 08:17:18;;;;;;;9.82;5.72;;;;;;;;;;4944663;28;20027;-65
2022/04/28 08:20:03;;;;;;;10.52;6.38;;;;;;;;;;4966508;28;20046;-64
2022/04/28 08:22:49;;;;;;;8.13;5.60;;;;;;;;;;4969302;28;20035;-60
2022/04/28 08:25:34;;;;;;;10.52;6.18;;;;;;;;;;4969287;28;20035;-69
2022/04/28 08:28:19;;;;;;;7.47;5.22;;;;;;;;;;4983927;28;20101;-64
2022/04/28 08:31:04;;;;;;;13.68;6.32;;;;;;;;;;4958879;28;20506;-63
2022/04/28 08:33:50;;;;;;;8.20;5.22;;;;;;;;;;4968093;28;20028;-65
2022/04/28 08:36:35;;;;;;;9.23;5.57;;;;;;;;;;4970493;28;20030;-67
2022/04/28 08:39:20;;;;;;;8.38;5.63;;;;;;;;;;4966668;28;20058;-62
2022/04/28 08:42:07;;;;;;;7.60;5.30;;;;;;;;;;4969353;28;20046;-70
2022/04/28 08:44:58;;;;;;;9.27;5.72;;;;;;;;;;4968124;28;20039;-66
2022/04/28 08:47:43;;;;;;;7.10;5.18;;;;;;;;;;4969218;28;20037;-66
2022/04/28 08:50:29;;;;;;;6.78;5.20;;;;;;;;;;4974130;28;20072;-67
2022/04/28 08:53:14;;;;;;;10.75;5.10;;;;;;;;;;4967937;28;20264;-65
2022/04/28 08:55:59;;;;;;;10.65;4.88;;;;;;;;;;4966683;28;20039;-64
2022/04/28 08:58:45;;;;;;;6.85;4.20;;;;;;;;;;4976514;28;20035;-64
2022/04/28 09:01:30;;;;;;;5.88;4.25;;;;;;;;;;4967557;28;20374;-64
2022/04/28 09:04:17;;;;;;;7.03;3.78;;;;;;;;;;4969241;28;20069;-62
2022/04/28 09:07:05;;;;;;;6.40;4.10;;;;;;;;;;4979427;28;20049;-65
2022/04/28 09:09:50;;;;;;;6.18;4.15;;;;;;;;;;4968246;28;20035;-66
2022/04/28 09:12:36;;;;;;;6.22;4.30;;;;;;;;;;4955279;28;21822;-63
2022/04/28 09:15:21;;;;;;;6.72;4.22;;;;;;;;;;4977444;28;20038;-68
2022/04/28 09:18:07;;;;;;;6.35;4.68;;;;;;;;;;4984470;28;20035;-64
2022/04/28 09:20:53;;;;;;;8.05;4.55;;;;;;;;;;4972167;28;20104;-62
2022/04/28 09:23:38;;;;;;;7.68;4.43;;;;;;;;;;4968524;28;20039;-66
2022/04/28 09:26:27;;;;;;;7.57;4.50;;;;;;;;;;4966941;28;20042;-65
2022/04/28 09:29:12;;;;;;;;;;;;;;;;;;4981586;28;20124;-68
2022/04/28 09:31:58;;;;;;;6.25;4.15;;;;;;;;;;4964623;28;20316;-72
2022/04/28 09:34:47;;;;;;;6.35;3.60;;;;;;;;;;4983223;28;20205;-74
2022/04/28 09:37:32;;;;;;;;;;;;;;;;;;4963944;28;20572;-67
2022/04/28 09:43:22;;;;;;;5.38;3.33;;;;;;;;;;4967650;28;20043;-65
2022/04/28 09:46:08;;;;;;;6.30;3.38;;;;;;;;;;4977576;28;20516;-64
2022/04/28 09:48:53;;;;;;;6.85;3.45;;;;;;;;;;4968791;28;20038;-68
2022/04/28 09:51:39;;;;;;;5.40;3.53;;;;;;;;;;4943576;28;20039;-65
2022/04/28 09:54:27;;;;;;;5.55;3.50;;;;;;;;;;4968440;28;20038;-67
2022/04/28 09:57:12;;;;;;;4.88;2.95;;;;;;;;;;4965372;28;20042;-66
2022/04/28 09:59:58;;;;;;;5.05;2.78;;;;;;;;;;4982137;28;20501;-64
2022/04/28 10:02:43;;;;;;;5.15;3.33;;;;;;;;;;4964495;28;20026;-66
2022/04/28 10:05:29;;;;;;;5.18;3.20;;;;;;;;;;4963525;28;20479;-63
2022/04/28 10:08:14;;;;;;;4.57;2.97;;;;;;;;;;4968524;28;20391;-61
2022/04/28 10:11:00;;;;;;;6.75;3.58;;;;;;;;;;4966807;28;20065;-62
2022/04/28 10:13:46;;;;;;;5.75;3.67;;;;;;;;;;4980562;28;20035;-68
2022/04/28 10:16:31;;;;;;;5.32;3.00;;;;;;;;;;4965624;28;20035;-67
2022/04/28 10:19:22;;;;;;;4.68;2.80;;;;;;;;;;4954849;28;20038;-70
2022/04/28 10:22:10;;;;;;;15.50;10.23;;;;;;;;;;4971249;28;20035;-72
2022/04/28 10:34:59;;;;;;;5.05;3.42;;;;;;;;;;4970320;28;20110;-66
2022/04/28 10:37:45;;;;;;;5.90;3.30;;;;;;;;;;4977803;28;20043;-68
2022/04/28 10:40:35;;;;;;;7.13;3.92;;;;;;;;;;4965426;28;20126;-69
2022/04/28 10:43:25;;;;;;;4.72;2.92;;;;;;;;;;4966109;28;20042;-72
2022/04/28 10:46:10;;;;;;;4.93;2.92;;;;;;;;;;4969268;28;20121;-66
2022/04/28 10:48:59;;;;;;;5.22;3.00;;;;;;;;;;4970812;28;20038;-67
2022/04/28 10:51:45;;;;;;;7.40;3.90;;;;;;;;;;4973874;28;20035;-67
2022/04/28 10:54:43;;;;;;;4.63;3.25;;;;;;;;;;4978477;28;20113;-72
2022/04/28 10:57:30;;;;;;;5.30;3.83;;;;;;;;;;4965855;28;20026;-64
2022/04/28 11:00:34;;;;;;;3.90;2.53;;;;;;;;;;4959762;28;20355;-63
2022/04/28 11:03:40;;;;;;;5.30;2.53;;;;;;;;;;4978489;28;20030;-61
2022/04/28 11:06:33;;;;;;;5.88;3.03;;;;;;;;;;4953314;28;20030;-60
2022/04/28 11:09:35;;;;;;;5.13;2.60;;;;;;;;;;4962921;28;20468;-62
2022/04/28 11:12:20;;;;;;;5.20;2.95;;;;;;;;;;4971007;28;20455;-62
2022/04/28 11:15:10;;;;;;;3.50;2.75;;;;;;;;;;4955255;28;20066;-65
2022/04/28 11:17:55;;;;;;;3.35;2.42;;;;;;;;;;4963666;28;20043;-66
2022/04/28 11:20:41;;;;;;;4.38;2.88;;;;;;;;;;4963108;28;20038;-66
2022/04/28 11:23:31;;;;;;;4.07;2.88;;;;;;;;;;4980671;28;20026;-63
2022/04/28 11:26:17;;;;;;;8.57;3.25;;;;;;;;;;4968502;28;20038;-63
2022/04/28 11:29:09;;;;;;;4.75;2.90;;;;;;;;;;4965505;28;20426;-65
2022/04/28 11:31:54;;;;;;;4.40;2.78;;;;;;;;;;4962377;28;20097;-71
2022/04/28 11:34:40;;;;;;;6.00;3.30;;;;;;;;;;4966367;28;20079;-68
2022/04/28 11:37:26;;;;;;;5.22;3.08;;;;;;;;;;4977000;28;20035;-67
2022/04/28 11:40:16;;;;;;;4.38;3.35;;;;;;;;;;4964628;28;20077;-65
2022/04/28 11:43:02;;;;;;;5.90;3.15;;;;;;;;;;4964085;28;20046;-67
2022/04/28 11:45:48;;;;;;;4.90;2.95;;;;;;;;;;4963000;28;20035;-61
2022/04/28 11:48:34;;;;;;;5.68;2.83;;;;;;;;;;4961839;28;20046;-61
2022/04/28 11:51:24;;;;;;;3.72;2.85;;;;;;;;;;4965671;28;20093;-59
2022/04/28 11:54:20;;;;;;;5.50;3.42;;;;;;;;;;4964006;28;20042;-63
2022/04/28 11:57:09;;;;;;;4.22;2.58;;;;;;;;;;4964234;28;20111;-61
2022/04/28 11:59:54;;;;;;;;;;;;;;;;;;4967446;28;20061;-65
2022/04/28 12:02:41;;;;;;;3.30;2.53;;;;;;;;;;4970388;28;19969;-64
2022/04/28 12:05:27;;;;;;;4.00;2.65;;;;;;;;;;4975508;28;20529;-67
2022/04/28 12:08:13;;;;;;;7.45;2.70;;;;;;;;;;4965483;28;20035;-65
2022/04/28 12:20:11;;;;;;;3.63;2.83;;;;;;;;;;4961229;28;20031;-64
2022/04/28 12:22:57;;;;;;;6.18;3.08;;;;;;;;;;4963186;28;20445;-61
2022/04/28 12:25:42;;;;;;;4.03;2.92;;;;;;;;;;4959916;28;20070;-67
2022/04/28 12:28:34;;;;;;;2.55;2.15;;;;;;;;;;4964627;28;20478;-65
2022/04/28 12:31:26;;;;;;;3.50;2.75;;;;;;;;;;4977454;28;20038;-62
2022/04/28 12:34:22;;;;;;;4.28;2.42;;;;;;;;;;4964393;28;20046;-63
2022/04/28 12:37:08;;;;;;;4.40;3.08;;;;;;;;;;4964626;28;20038;-64
2022/04/28 12:39:54;;;;;;;4.15;2.65;;;;;;;;;;4961311;28;20501;-68
2022/04/28 12:42:44;;;;;;;5.22;2.83;;;;;;;;;;4964567;28;20031;-62
2022/04/28 12:45:42;;;;;;;4.40;2.67;;;;;;;;;;4964576;28;20043;-66
2022/04/28 12:48:31;;;;;;;4.75;3.10;;;;;;;;;;4965113;28;20034;-63
2022/04/28 12:51:17;;;;;;;4.68;3.40;;;;;;;;;;4977423;28;20049;-63
2022/04/28 12:54:10;;;;;;;4.57;2.78;;;;;;;;;;4960989;28;20066;-61
2022/04/28 12:57:00;;;;;;;4.20;2.60;;;;;;;;;;4975747;28;20061;-64
2022/04/28 12:59:45;;;;;;;3.40;2.55;;;;;;;;;;4971883;28;20042;-67
2022/04/28 13:02:31;;;;;;;5.82;2.80;;;;;;;;;;4948346;28;20042;-63
2022/04/28 13:05:18;;;;;;;3.05;2.47;;;;;;;;;;4962696;28;20027;-64
2022/04/28 13:08:04;;;;;;;4.95;2.88;;;;;;;;;;4966834;28;20130;-61
2022/04/28 13:10:50;;;;;;;7.85;2.60;;;;;;;;;;4968588;28;20136;-62
2022/04/28 13:13:35;;;;;;;3.70;2.60;;;;;;;;;;4965531;28;20405;-63
2022/04/28 13:16:21;;;;;;;3.78;2.40;;;;;;;;;;4968033;28;20038;-62
2022/04/28 13:19:07;;;;;;;4.78;2.38;;;;;;;;;;4980114;28;20553;-64
2022/04/28 13:21:52;;;;;;;4.68;2.80;;;;;;;;;;4955470;28;20026;-62
2022/04/28 13:24:37;;;;;;;7.70;2.95;;;;;;;;;;4966936;28;20129;-63
2022/04/28 13:27:23;;;;;;;5.00;2.70;;;;;;;;;;4965700;28;20031;-69
2022/04/28 13:30:08;;;;;;;3.60;2.30;;;;;;;;;;4979292;28;20374;-66
2022/04/28 13:32:53;;;;;;;3.42;2.67;;;;;;;;;;4962905;28;20030;-63
2022/04/28 13:35:39;;;;;;;3.97;2.58;;;;;;;;;;4967977;28;20075;-62
2022/04/28 13:38:24;;;;;;;3.08;2.45;;;;;;;;;;4967489;28;20058;-64
2022/04/28 13:41:10;;;;;;;4.35;2.88;;;;;;;;;;4978032;28;20029;-68
2022/04/28 13:43:55;;;;;;;4.32;2.83;;;;;;;;;;4981326;28;20035;-69
2022/04/28 13:46:41;;;;;;;4.40;2.80;;;;;;;;;;4981824;28;20035;-68
2022/04/28 13:49:26;;;;;;;5.47;2.58;;;;;;;;;;4973995;28;20080;-65
2022/04/28 13:52:11;;;;;;;4.13;2.75;;;;;;;;;;4967816;28;20038;-65
2022/04/28 13:54:57;;;;;;;4.63;2.70;;;;;;;;;;4965699;28;20549;-62
2022/04/28 13:57:42;;;;;;;4.57;2.58;;;;;;;;;;4965234;28;20031;-62
2022/04/28 14:00:27;;;;;;;5.68;3.00;;;;;;;;;;4963464;28;20035;-65
2022/04/28 14:03:13;;;;;;;4.22;2.92;;;;;;;;;;4965653;28;20033;-62
2022/04/28 14:05:59;;;;;;;5.10;2.50;;;;;;;;;;4967641;28;20545;-62
2022/04/28 14:08:44;;;;;;;3.88;2.70;;;;;;;;;;4977726;28;20458;-61
2022/04/28 14:11:29;;;;;;;5.72;2.70;;;;;;;;;;4977021;28;20114;-62
2022/04/28 14:14:15;;;;;;;3.50;2.47;;;;;;;;;;4982220;28;20147;-67
2022/04/28 14:17:00;;;;;;;5.15;3.00;;;;;;;;;;4969917;28;20554;-66
2022/04/28 14:19:45;;;;;;;6.75;3.25;;;;;;;;;;4970423;28;20134;-65
2022/04/28 14:22:31;;;;;;;7.57;3.17;;;;;;;;;;4978352;28;20088;-63
2022/04/28 14:25:16;;;;;;;4.38;2.60;;;;;;;;;;4982761;28;20031;-64
2022/04/28 14:28:02;;;;;;;4.13;2.80;;;;;;;;;;4970522;28;20549;-64
2022/04/28 14:30:48;;;;;;;4.40;2.72;;;;;;;;;;4970812;28;20022;-65
2022/04/28 14:33:33;;;;;;;5.50;2.78;;;;;;;;;;4971221;28;20034;-61
2022/04/28 14:36:18;;;;;;;4.45;2.42;;;;;;;;;;4974049;28;20038;-63
2022/04/28 14:39:03;;;;;;;2.83;2.50;;;;;;;;;;4973302;28;20117;-65
2022/04/28 14:41:49;;;;;;;8.13;2.70;;;;;;;;;;4969482;28;20549;-63
2022/04/28 14:44:34;;;;;;;4.35;2.67;;;;;;;;;;4956304;28;20035;-63
2022/04/28 14:47:19;;;;;;;6.82;2.83;;;;;;;;;;4982289;28;20253;-65
2022/04/28 14:53:09;;;;;;;5.07;2.90;;;;;;;;;;4979536;28;20130;-63
2022/04/28 14:55:54;;;;;;;5.82;2.60;;;;;;;;;;4983886;28;20042;-64
2022/04/28 14:58:39;;;;;;;5.82;3.00;;;;;;;;;;4971306;28;20066;-62
2022/04/28 15:01:25;;;;;;;4.18;2.78;;;;;;;;;;4974487;28;20363;-63
2022/04/28 15:04:10;;;;;;;3.72;3.03;;;;;;;;;;4970393;28;20046;-62
2022/04/28 15:06:55;;;;;;;3.63;2.58;;;;;;;;;;4983506;28;20043;-64
2022/04/28 15:09:42;;;;;;;5.22;3.38;;;;;;;;;;4970489;28;20045;-62
2022/04/28 15:12:30;;;;;;;3.20;2.55;;;;;;;;;;4972155;28;20038;-63
2022/04/28 15:15:15;;;;;;;3.75;2.85;;;;;;;;;;4985807;28;20419;-65
2022/04/28 15:18:01;;;;;;;5.00;3.10;;;;;;;;;;4985668;28;20039;-64
2022/04/28 15:20:46;;;;;;;5.63;2.50;;;;;;;;;;4966939;28;20118;-64
2022/04/28 15:23:31;;;;;;;4.20;2.85;;;;;;;;;;4971902;28;20063;-65
2022/04/28 15:26:18;;;;;;;6.00;3.10;;;;;;;;;;4969677;28;20022;-64
2022/04/28 15:29:04;;;;;;;4.30;2.55;;;;;;;;;;4969280;28;20422;-65
2022/04/28 15:31:49;;;;;;;5.28;2.78;;;;;;;;;;4969980;28;20063;-65
2022/04/28 15:34:37;;;;;;;6.63;2.67;;;;;;;;;;4996052;28;20042;-66
2022/04/28 15:37:22;;;;;;;3.42;2.53;;;;;;;;;;4969988;28;20039;-64
2022/04/28 15:40:10;;;;;;;3.88;2.92;;;;;;;;;;4968491;28;21731;-65
2022/04/28 15:42:55;;;;;;;5.20;2.83;;;;;;;;;;4970143;28;20046;-65
2022/04/28 15:45:40;;;;;;;5.45;3.10;;;;;;;;;;4969604;28;20506;-61
2022/04/28 15:48:26;;;;;;;7.47;3.20;;;;;;;;;;4969905;28;20034;-64
2022/04/28 15:51:11;;;;;;;4.82;2.83;;;;;;;;;;4969266;28;20185;-62
2022/04/28 15:53:56;;;;;;;3.92;2.85;;;;;;;;;;4970140;28;20505;-62
2022/04/28 15:56:42;;;;;;;4.18;2.90;;;;;;;;;;4980697;28;20050;-64
2022/04/28 15:59:27;;;;;;;3.75;3.15;;;;;;;;;;4985308;28;20034;-64
2022/04/28 16:02:12;;;;;;;4.57;3.28;;;;;;;;;;4970150;28;20049;-62
2022/04/28 16:04:58;;;;;;;5.90;2.90;;;;;;;;;;4970273;28;20030;-61
2022/04/28 16:07:44;;;;;;;6.88;3.45;;;;;;;;;;4954608;28;20379;-64
2022/04/28 16:10:30;;;;;;;8.20;2.90;;;;;;;;;;4968636;28;20037;-64
2022/04/28 16:13:15;;;;;;;5.72;3.28;;;;;;;;;;4977262;28;20058;-65
2022/04/28 16:16:00;;;;;;;4.38;2.92;;;;;;;;;;4973963;28;20110;-64
2022/04/28 16:18:46;;;;;;;4.90;2.55;;;;;;;;;;4977027;28;20371;-64
2022/04/28 16:21:31;;;;;;;5.40;2.70;;;;;;;;;;4967925;28;20151;-65
2022/04/28 16:24:17;;;;;;;4.53;2.90;;;;;;;;;;4963968;28;20035;-63
2022/04/28 16:27:02;;;;;;;4.25;2.92;;;;;;;;;;4970618;28;20577;-63
2022/04/28 16:29:51;;;;;;;4.95;2.63;;;;;;;;;;4980883;28;20482;-61
2022/04/28 16:32:36;;;;;;;3.47;2.53;;;;;;;;;;4968776;28;20482;-61
2022/04/28 16:35:22;;;;;;;4.13;2.45;;;;;;;;;;4953859;28;20376;-64
2022/04/28 16:38:08;;;;;;;3.72;2.83;;;;;;;;;;4967922;28;20035;-64
2022/04/28 16:40:53;;;;;;;16.23;3.50;;;;;;;;;;4974167;28;20042;-61
2022/04/28 16:43:39;;;;;;;4.40;2.60;;;;;;;;;;4981277;28;20421;-64
2022/04/28 16:46:24;;;;;;;7.25;3.28;;;;;;;;;;4971413;28;20429;-64
2022/04/28 16:49:11;;;;;;;3.78;2.80;;;;;;;;;;4986161;28;20038;-61
2022/04/28 16:52:01;;;;;;;4.15;2.67;;;;;;;;;;4979178;28;20043;-63
2022/04/28 16:54:46;;;;;;;4.65;2.97;;;;;;;;;;4981190;28;20042;-63
2022/04/28 16:57:31;;;;;;;4.32;2.78;;;;;;;;;;4970970;28;20031;-63
2022/04/28 17:00:18;;;;;;;6.72;3.20;;;;;;;;;;4967962;28;20070;-61
2022/04/28 17:06:07;;;;;;;4.40;2.90;;;;;;;;;;4971577;28;20066;-64
2022/04/28 17:08:54;;;;;;;3.40;2.78;;;;;;;;;;4963869;28;20662;-64
2022/04/28 17:11:39;;;;;;;6.00;3.08;;;;;;;;;;4970367;28;20555;-66
2022/04/28 17:14:25;;;;;;;5.15;2.88;;;;;;;;;;4973167;28;20054;-62
2022/04/28 17:17:10;;;;;;;5.35;3.25;;;;;;;;;;4973293;28;20488;-62